Time;durP1;ratioP1;P1;durP2;ratioP2;P2;SDS_P1;SDS_P2;PMS_P1;PMS_P2;Temp;Humidity;BMP_temperature;BMP_pressure;BME280_temperature;BME280_humidity;BME280_pressure;Samples;Min_cycle;Max_cycle;Signal;HPM_P1;HPM_P2
2023/03/02 00:00:56;;;;;;;;;;;;;;;20.15;43.45;102130.44;5074448;28;1684;-66
2023/03/02 00:03:22;;;;;;;;;;;;;;;20.15;43.61;102132.56;5101216;28;2515;-66
2023/03/02 00:05:49;;;;;;;;;;;;;;;20.12;43.60;102134.56;5099965;28;2835;-66
2023/03/02 00:08:15;;;;;;;;;;;;;;;20.13;43.58;102132.44;5072621;28;1853;-66
2023/03/02 00:10:42;;;;;;;;;;;;;;;20.12;43.48;102133.81;5104780;28;2744;-66
2023/03/02 00:13:08;;;;;;;;;;;;;;;20.11;43.60;102127.28;5076189;28;1748;-66
2023/03/02 00:15:34;;;;;;;;;;;;;;;20.11;43.60;102133.03;5072607;28;2894;-66
2023/03/02 00:18:01;;;;;;;;;;;;;;;20.11;43.66;102133.03;5071063;28;1969;-66
2023/03/02 00:20:27;;;;;;;;;;;;;;;20.12;43.56;102139.56;5069211;28;2581;-66
2023/03/02 00:22:53;;;;;;;;;;;;;;;20.11;43.64;102132.28;5063441;28;2782;-66
2023/03/02 00:25:20;;;;;;;;;;;;;;;20.11;43.70;102129.41;5068817;28;2854;-66
2023/03/02 00:27:46;;;;;;;;;;;;;;;20.13;43.60;102129.56;5072346;28;1758;-66
2023/03/02 00:30:13;;;;;;;;;;;;;;;20.14;43.47;102116.69;5075223;28;1694;-66
2023/03/02 00:32:39;;;;;;;;;;;;;;;20.14;43.55;102119.56;5074431;28;1758;-66
2023/03/02 00:35:05;;;;;;;;;;;;;;;20.13;43.54;102115.19;5070307;28;2960;-66
2023/03/02 00:37:33;;;;;;;;;;;;;;;20.15;43.43;102121.06;5074753;28;1969;-66
2023/03/02 00:39:59;;;;;;;;;;;;;;;20.14;43.65;102119.56;5072490;28;2525;-66
2023/03/02 00:42:26;;;;;;;;;;;;;;;20.13;43.48;102126.69;5064946;28;2542;-66
2023/03/02 00:44:52;;;;;;;;;;;;;;;20.14;43.71;102131.06;5069851;28;2778;-66
2023/03/02 00:47:19;;;;;;;;;;;;;;;20.12;43.60;102120.19;5069888;28;2864;-65
2023/03/02 00:49:48;;;;;;;;;;;;;;;20.11;43.74;102127.28;5076810;28;1826;-66
2023/03/02 00:52:15;;;;;;;;;;;;;;;20.09;43.72;102122.16;5074707;28;1970;-66
2023/03/02 00:54:41;;;;;;;;;;;;;;;20.09;43.68;102130.78;5059267;28;2680;-66
2023/03/02 00:57:08;;;;;;;;;;;;;;;20.08;43.65;102123.53;5074416;28;2145;-66
2023/03/02 00:59:35;;;;;;;;;;;;;;;20.09;43.74;102125.03;5075535;28;2200;-66
2023/03/02 01:02:22;;;;;;;;;;;;;;;20.09;43.78;102130.78;5070135;28;2695;-66
2023/03/02 01:04:51;;;;;;;;;;;;;;;20.11;43.82;102126.53;5059977;28;2652;-66
2023/03/02 01:07:19;;;;;;;;;;;;;;;20.11;43.69;102120.78;5070588;28;2700;-66
2023/03/02 01:09:47;;;;;;;;;;;;;;;20.12;43.61;102122.31;5074227;28;2082;-66
2023/03/02 01:12:14;;;;;;;;;;;;;;;20.13;43.59;102118.06;5069411;28;2093;-66
2023/03/02 01:14:41;;;;;;;;;;;;;;;20.13;43.75;102118.06;5104132;27;2846;-66
2023/03/02 01:17:08;;;;;;;;;;;;;;;20.13;43.76;102118.06;5074713;28;2892;-66
2023/03/02 01:19:34;;;;;;;;;;;;;;;20.11;43.58;102117.91;5077428;28;1795;-66
2023/03/02 01:22:00;;;;;;;;;;;;;;;20.12;43.72;102113.69;5069665;28;2927;-66
2023/03/02 01:24:27;;;;;;;;;;;;;;;20.10;43.74;102114.28;5057569;28;2867;-66
2023/03/02 01:26:53;;;;;;;;;;;;;;;20.08;43.69;102112.03;5066691;28;2942;-66
2023/03/02 01:29:19;;;;;;;;;;;;;;;20.09;43.59;102116.41;5065774;28;2918;-66
2023/03/02 01:31:46;;;;;;;;;;;;;;;20.07;43.70;102099.03;5067037;28;2892;-67
2023/03/02 01:34:12;;;;;;;;;;;;;;;20.07;43.63;102101.91;5067084;28;2906;-66
2023/03/02 01:36:38;;;;;;;;;;;;;;;20.07;43.61;102104.78;5069594;28;2915;-66
2023/03/02 01:39:05;;;;;;;;;;;;;;;20.07;43.74;102092.53;5068233;28;2917;-66
2023/03/02 01:41:31;;;;;;;;;;;;;;;20.08;43.73;102097.63;5067368;28;2742;-66
2023/03/02 01:43:57;;;;;;;;;;;;;;;20.09;43.63;102096.28;5070442;28;3217;-66
2023/03/02 01:46:24;;;;;;;;;;;;;;;20.10;43.65;102099.91;5070390;28;2945;-66
2023/03/02 01:48:57;;;;;;;;;;;;;;;20.11;43.60;102086.28;5083147;28;2791;-66
2023/03/02 01:51:33;;;;;;;;;;;;;;;20.09;43.65;102090.53;5069808;28;3038;-66
2023/03/02 01:54:01;;;;;;;;;;;;;;;20.11;43.63;102094.91;5090516;28;2925;-66
2023/03/02 01:56:33;;;;;;;;;;;;;;;20.10;43.67;102082.66;5069550;28;2838;-66
2023/03/02 01:59:00;;;;;;;;;;;;;;;20.11;43.71;102086.28;5064366;28;2880;-66
2023/03/02 02:01:28;;;;;;;;;;;;;;;20.10;43.74;102082.66;5100719;27;3024;-66
2023/03/02 02:03:54;;;;;;;;;;;;;;;20.09;43.72;102084.03;5067076;28;2967;-66
2023/03/02 02:06:22;;;;;;;;;;;;;;;20.08;43.70;102077.50;5068905;28;2990;-66
2023/03/02 02:08:48;;;;;;;;;;;;;;;20.06;43.78;102068.75;5068690;28;2863;-66
2023/03/02 02:11:15;;;;;;;;;;;;;;;20.05;43.60;102070.13;5071945;28;2805;-66
2023/03/02 02:13:42;;;;;;;;;;;;;;;20.05;43.80;102067.25;5053379;28;2908;-66
2023/03/02 02:16:08;;;;;;;;;;;;;;;20.05;43.85;102067.25;5068273;28;2859;-66
2023/03/02 02:18:34;;;;;;;;;;;;;;;20.06;43.70;102068.75;5100153;27;2903;-66
2023/03/02 02:21:01;;;;;;;;;;;;;;;20.05;43.78;102073.00;5061333;28;2829;-66
2023/03/02 02:23:30;;;;;;;;;;;;;;;20.07;43.63;102076.03;5068114;28;3009;-66
2023/03/02 02:26:10;;;;;;;;;;;;;;;20.07;43.71;102073.16;5103708;27;2825;-66
2023/03/02 02:28:38;;;;;;;;;;;;;;;20.08;43.67;102066.00;5064317;28;2827;-66
2023/03/02 02:31:06;;;;;;;;;;;;;;;20.08;43.63;102066.00;5085217;27;2956;-66
2023/03/02 02:33:32;;;;;;;;;;;;;;;20.08;43.76;102068.88;5060035;28;2829;-66
2023/03/02 02:36:06;;;;;;;;;;;;;;;20.07;43.71;102069.53;5094993;27;2969;-66
2023/03/02 02:38:33;;;;;;;;;;;;;;;20.07;43.75;102076.03;5081456;28;2891;-66
2023/03/02 02:41:00;;;;;;;;;;;;;;;20.06;43.67;102068.00;5097873;27;2984;-66
2023/03/02 02:43:30;;;;;;;;;;;;;;;20.05;43.85;102075.88;5046958;28;2927;-66
2023/03/02 02:45:56;;;;;;;;;;;;;;;20.05;43.82;102067.25;5082674;28;2842;-66
2023/03/02 02:48:24;;;;;;;;;;;;;;;20.06;43.83;102068.75;5068122;28;2922;-66
2023/03/02 02:50:58;;;;;;;;;;;;;;;20.06;43.77;102068.75;5089904;27;2939;-66
2023/03/02 02:53:26;;;;;;;;;;;;;;;20.06;43.83;102068.75;5052206;28;2859;-66
2023/03/02 02:55:53;;;;;;;;;;;;;;;20.06;43.80;102059.38;5054219;28;2930;-66
2023/03/02 02:58:20;;;;;;;;;;;;;;;20.08;43.89;102059.50;5068231;28;2891;-66
2023/03/02 03:00:46;;;;;;;;;;;;;;;20.08;43.70;102063.13;5084187;28;2933;-66
2023/03/02 03:03:29;;;;;;;;;;;;;;;20.08;43.80;102060.25;5065105;28;3432;-67
2023/03/02 03:06:00;;;;;;;;;;;;;;;20.08;43.72;102059.50;5054395;28;1862;-66
2023/03/02 03:08:44;;;;;;;;;;;;;;;20.08;43.57;102059.50;5070147;28;1899;-66
2023/03/02 03:11:22;;;;;;;;;;;;;;;20.08;43.75;102057.38;5099580;27;1741;-66
2023/03/02 03:14:09;;;;;;;;;;;;;;;20.07;43.82;102058.75;5096544;27;2815;-66
2023/03/02 03:16:36;;;;;;;;;;;;;;;20.06;43.76;102056.50;5067151;28;2385;-66
2023/03/02 03:19:10;;;;;;;;;;;;;;;20.05;43.86;102052.88;5068528;28;1906;-66
2023/03/02 03:21:37;;;;;;;;;;;;;;;20.06;43.66;102056.50;5062268;28;2703;-65
2023/03/02 03:24:03;;;;;;;;;;;;;;;20.05;43.74;102061.50;5051350;28;3012;-66
2023/03/02 03:26:30;;;;;;;;;;;;;;;20.06;43.78;102059.38;5051912;28;2908;-66
2023/03/02 03:28:57;;;;;;;;;;;;;;;20.06;43.89;102057.25;5049530;28;2967;-66
2023/03/02 03:31:25;;;;;;;;;;;;;;;20.06;43.71;102040.00;5063646;28;2761;-66
2023/03/02 03:33:52;;;;;;;;;;;;;;;20.08;43.69;102054.50;5091831;27;3578;-68
2023/03/02 03:36:19;;;;;;;;;;;;;;;20.07;43.78;102049.38;5060896;28;3351;-65
2023/03/02 03:38:45;;;;;;;;;;;;;;;20.08;43.78;102050.88;5057233;28;3009;-66
2023/03/02 03:41:12;;;;;;;;;;;;;;;20.06;43.67;102040.00;5063277;28;2998;-65
2023/03/02 03:43:38;;;;;;;;;;;;;;;20.06;43.76;102045.00;5049106;28;2879;-66
2023/03/02 03:46:05;;;;;;;;;;;;;;;20.05;43.83;102044.25;5059102;28;3288;-66
2023/03/02 03:48:31;;;;;;;;;;;;;;;20.06;43.71;102048.63;5063215;28;2806;-66
2023/03/02 03:50:58;;;;;;;;;;;;;;;20.04;43.88;102044.84;5063759;28;2631;-66
2023/03/02 03:53:25;;;;;;;;;;;;;;;20.05;43.75;102052.88;5053407;28;2912;-66
2023/03/02 03:55:52;;;;;;;;;;;;;;;20.06;43.77;102045.75;5068347;28;2979;-65
2023/03/02 03:58:18;;;;;;;;;;;;;;;20.06;43.66;102048.63;5063749;28;1910;-66
2023/03/02 04:00:46;;;;;;;;;;;;;;;20.08;43.68;102054.50;5067130;28;3006;-66
2023/03/02 04:03:13;;;;;;;;;;;;;;;20.09;43.68;102050.28;5051866;28;2772;-66
2023/03/02 04:05:40;;;;;;;;;;;;;;;20.11;43.76;102048.88;5096364;28;2890;-66
2023/03/02 04:08:06;;;;;;;;;;;;;;;20.08;43.69;102040.13;5051896;28;2912;-66
2023/03/02 04:10:33;;;;;;;;;;;;;;;20.11;43.74;102046.00;5068333;28;2954;-66
2023/03/02 04:13:00;;;;;;;;;;;;;;;20.11;43.79;102043.13;5079837;28;1810;-66
2023/03/02 04:15:27;;;;;;;;;;;;;;;20.12;43.75;102047.53;5092039;28;2957;-66
2023/03/02 04:17:54;;;;;;;;;;;;;;;20.09;43.72;102041.66;5061002;28;2616;-66
2023/03/02 04:20:22;;;;;;;;;;;;;;;20.09;43.80;102038.78;5053562;28;2951;-66
2023/03/02 04:22:51;;;;;;;;;;;;;;;20.09;43.86;102041.66;5068492;28;3110;-66
2023/03/02 04:25:18;;;;;;;;;;;;;;;20.10;43.55;102045.28;5093059;27;2946;-65
2023/03/02 04:27:46;;;;;;;;;;;;;;;20.12;43.96;102041.78;5049186;28;2990;-67
2023/03/02 04:30:12;;;;;;;;;;;;;;;19.57;43.00;102048.19;5056528;28;2881;-66
2023/03/02 04:32:38;;;;;;;;;;;;;;;19.67;43.78;102043.13;5062540;28;2927;-66
2023/03/02 04:35:05;;;;;;;;;;;;;;;19.84;44.38;102050.75;5066127;28;2943;-66
2023/03/02 04:37:31;;;;;;;;;;;;;;;19.92;43.90;102044.81;5075597;28;3303;-66
2023/03/02 04:39:58;;;;;;;;;;;;;;;19.96;43.47;102047.94;5056553;28;3003;-66
2023/03/02 04:42:24;;;;;;;;;;;;;;;19.99;43.33;102051.72;5073206;28;2914;-66
2023/03/02 04:44:50;;;;;;;;;;;;;;;19.99;43.53;102051.72;5073413;28;3063;-65
2023/03/02 04:47:17;;;;;;;;;;;;;;;19.98;43.77;102050.97;5069822;28;3097;-65
2023/03/02 04:49:43;;;;;;;;;;;;;;;19.99;43.47;102063.97;5068462;28;2631;-65
2023/03/02 04:52:09;;;;;;;;;;;;;;;19.98;43.77;102064.59;5073655;28;2960;-65
2023/03/02 04:54:36;;;;;;;;;;;;;;;20.00;43.54;102064.72;5076149;28;2946;-65
2023/03/02 04:57:02;;;;;;;;;;;;;;;19.99;43.67;102060.34;5072636;28;3078;-66
2023/03/02 04:59:28;;;;;;;;;;;;;;;20.00;43.86;102061.84;5074798;28;2975;-66
2023/03/02 05:01:56;;;;;;;;;;;;;;;20.00;43.94;102051.09;5079273;28;2399;-66
2023/03/02 05:04:22;;;;;;;;;;;;;;;20.02;43.91;102059.88;5073193;28;2699;-66
2023/03/02 05:06:49;;;;;;;;;;;;;;;20.01;44.03;102048.97;5073191;28;2982;-66
2023/03/02 05:09:15;;;;;;;;;;;;;;;20.02;44.04;102051.25;5076220;28;2773;-65
2023/03/02 05:11:42;;;;;;;;;;;;;;;20.02;44.05;102045.50;5070024;28;2895;-66
2023/03/02 05:14:09;;;;;;;;;;;;;;;20.04;44.08;102045.63;5074286;28;2954;-66
2023/03/02 05:16:36;;;;;;;;;;;;;;;20.02;44.12;102038.97;5071586;28;2967;-66
2023/03/02 05:19:03;;;;;;;;;;;;;;;20.02;44.27;102045.50;5071777;28;2852;-66
2023/03/02 05:21:29;;;;;;;;;;;;;;;20.02;44.25;102038.97;5070588;28;2935;-66
2023/03/02 05:23:55;;;;;;;;;;;;;;;20.02;44.30;102038.97;5069654;28;2753;-66
2023/03/02 05:26:22;;;;;;;;;;;;;;;20.00;44.04;102039.59;5071374;28;2866;-66
2023/03/02 05:28:48;;;;;;;;;;;;;;;20.00;44.33;102050.34;5069432;28;2872;-66
2023/03/02 05:31:18;;;;;;;;;;;;;;;19.99;44.23;102052.47;5069153;28;2965;-65
2023/03/02 05:33:44;;;;;;;;;;;;;;;20.00;44.24;102053.97;5101744;27;3390;-66
2023/03/02 05:36:10;;;;;;;;;;;;;;;19.99;44.10;102054.59;5066844;28;2782;-65
2023/03/02 05:38:37;;;;;;;;;;;;;;;19.99;44.34;102052.47;5060127;28;3003;-66
2023/03/02 05:41:03;;;;;;;;;;;;;;;19.99;44.36;102052.47;5069118;28;2959;-66
2023/03/02 05:43:29;;;;;;;;;;;;;;;20.00;44.23;102048.22;5066979;28;3025;-66
2023/03/02 05:45:59;;;;;;;;;;;;;;;20.02;44.25;102044.72;5071128;28;1870;-66
2023/03/02 05:48:26;;;;;;;;;;;;;;;20.02;44.08;102051.25;5067119;28;2919;-65
2023/03/02 05:50:52;;;;;;;;;;;;;;;20.02;44.32;102051.25;5070304;28;2875;-66
2023/03/02 05:53:18;;;;;;;;;;;;;;;20.03;44.14;102040.50;5070499;28;2999;-66
2023/03/02 05:55:44;;;;;;;;;;;;;;;20.04;44.12;102042.75;5070002;28;2765;-64
2023/03/02 05:58:11;;;;;;;;;;;;;;;20.02;44.37;102042.63;5067731;28;2572;-65
2023/03/02 06:00:38;;;;;;;;;;;;;;;20.00;44.12;102048.22;5097973;27;2577;-66
2023/03/02 06:03:04;;;;;;;;;;;;;;;20.00;44.55;102048.22;5067426;28;2919;-63
2023/03/02 06:05:30;;;;;;;;;;;;;;;20.06;44.43;102048.63;5070645;28;2879;-66
2023/03/02 06:07:57;;;;;;;;;;;;;;;19.86;44.47;102053.03;5065472;28;3078;-66
2023/03/02 06:10:23;;;;;;;;;;;;;;;19.91;44.74;102057.69;5066828;28;2962;-66
2023/03/02 06:12:50;;;;;;;;;;;;;;;19.99;44.36;102058.22;5063840;28;2919;-63
2023/03/02 06:15:16;;;;;;;;;;;;;;;20.11;44.36;102051.78;5057815;28;2994;-69
2023/03/02 06:17:42;;;;;;;;;;;;;;;20.12;44.41;102053.28;5060381;28;3009;-68
2023/03/02 06:20:09;;;;;;;;;;;;;;;20.25;44.54;102059.22;5062793;28;3060;-68
2023/03/02 06:22:40;;;;;;;;;;;;;;;20.32;45.12;102057.50;5064501;28;4552;-71
2023/03/02 06:25:15;;;;;;;;;;;;;;;20.31;45.47;102058.84;5057961;28;2671;-71
2023/03/02 06:27:42;;;;;;;;;;;;;;;20.31;45.28;102061.75;5063081;28;1666;-69
2023/03/02 06:30:09;;;;;;;;;;;;;;;20.33;45.47;102078.38;5059965;28;2502;-70
2023/03/02 06:32:35;;;;;;;;;;;;;;;20.33;45.09;102073.38;5091846;27;3451;-70
2023/03/02 06:35:02;;;;;;;;;;;;;;;20.38;45.22;102075.16;5051512;28;1689;-69
2023/03/02 06:37:29;;;;;;;;;;;;;;;20.40;45.33;102075.28;5059284;28;1736;-69
2023/03/02 06:39:55;;;;;;;;;;;;;;;20.43;45.48;102074.06;5061388;28;1910;-69
2023/03/02 06:42:22;;;;;;;;;;;;;;;20.46;45.54;102078.56;5057729;28;2492;-70
2023/03/02 06:44:50;;;;;;;;;;;;;;;20.47;45.50;102082.94;5061321;28;2720;-70
2023/03/02 06:47:16;;;;;;;;;;;;;;;20.51;45.65;102080.31;5063599;28;1771;-70
2023/03/02 06:49:43;;;;;;;;;;;;;;;20.50;45.85;102075.97;5068174;28;2224;-71
2023/03/02 06:52:12;;;;;;;;;;;;;;;20.50;45.64;102078.84;5069040;28;1601;-69
2023/03/02 06:54:38;;;;;;;;;;;;;;;20.59;45.76;102079.38;5068417;28;1973;-69
2023/03/02 06:57:05;;;;;;;;;;;;;;;20.62;45.52;102089.66;5068476;28;2219;-70
2023/03/02 06:59:32;;;;;;;;;;;;;;;20.67;45.42;102082.78;5060070;28;4620;-66
2023/03/02 07:01:58;;;;;;;;;;;;;;;20.69;45.20;102082.94;5065715;28;2593;-65
2023/03/02 07:04:27;;;;;;;;;;;;;;;20.69;45.14;102085.81;5065232;28;1930;-66
2023/03/02 07:06:53;;;;;;;;;;;;;;;20.67;45.34;102086.41;5064680;28;2473;-66
2023/03/02 07:09:20;;;;;;;;;;;;;;;20.68;45.32;102084.28;5067144;28;1850;-67
2023/03/02 07:11:47;;;;;;;;;;;;;;;20.66;45.19;102081.28;5069319;28;1795;-70
2023/03/02 07:14:13;;;;;;;;;;;;;;;20.46;44.57;102081.44;5067895;28;1644;-68
2023/03/02 07:16:40;;;;;;;;;;;;;;;20.37;44.97;102073.66;5071462;28;1833;-68
2023/03/02 07:19:09;;;;;;;;;;;;;;;20.44;44.73;102080.56;5069407;28;2763;-67
2023/03/02 07:21:36;;;;;;;;;;;;;;;20.49;45.18;102068.69;5098978;27;1947;-68
2023/03/02 07:24:02;;;;;;;;;;;;;;;20.55;44.97;102076.19;5070122;28;4110;-65
2023/03/02 07:26:28;;;;;;;;;;;;;;;20.61;44.90;102079.50;5073497;28;4056;-67
2023/03/02 07:28:58;;;;;;;;;;;;;;;20.60;44.65;102078.75;5069028;28;1785;-68
2023/03/02 07:31:24;;;;;;;;;;;;;;;20.62;44.63;102081.78;5066956;28;4757;-68
2023/03/02 07:33:51;;;;;;;;;;;;;;;20.62;44.63;102081.03;5063371;28;4222;-67
2023/03/02 07:36:17;;;;;;;;;;;;;;;20.67;44.47;102082.78;5064271;28;4492;-64
2023/03/02 07:38:43;;;;;;;;;;;;;;;20.66;44.37;102081.28;5065818;28;1993;-70
2023/03/02 07:41:11;;;;;;;;;;;;;;;20.64;44.42;102086.91;5063513;28;2475;-78
2023/03/02 07:43:37;;;;;;;;;;;;;;;20.54;44.58;102083.34;5057237;28;3029;-77
2023/03/02 07:46:03;;;;;;;;;;;;;;;20.50;44.29;102081.72;5059683;28;2436;-77
2023/03/02 07:48:30;;;;;;;;;;;;;;;20.49;44.45;102079.44;5073541;28;2537;-77
2023/03/02 07:51:00;;;;;;;;;;;;;;;20.50;44.46;102081.72;5065067;28;4630;-77
2023/03/02 07:53:26;;;;;;;;;;;;;;;20.51;44.50;102088.97;5064826;28;1698;-78
2023/03/02 07:55:53;;;;;;;;;;;;;;;20.51;44.81;102083.22;5073422;28;2559;-77
2023/03/02 07:58:19;;;;;;;;;;;;;;;20.53;44.65;102090.47;5074647;28;1914;-78
2023/03/02 08:00:45;;;;;;;;;;;;;;;20.53;44.74;102084.72;5075228;28;1906;-78
2023/03/02 08:03:12;;;;;;;;;;;;;;;20.53;44.47;102090.47;5077327;28;1699;-78
2023/03/02 08:05:38;;;;;;;;;;;;;;;20.48;44.50;102084.47;5073899;28;4708;-70
2023/03/02 08:08:04;;;;;;;;;;;;;;;20.53;44.53;102088.34;5066014;28;4754;-72
2023/03/02 08:10:34;;;;;;;;;;;;;;;20.61;44.40;102083.13;5073641;28;3770;-71
2023/03/02 08:13:01;;;;;;;;;;;;;;;20.56;44.36;102077.72;5074848;28;1844;-72
2023/03/02 08:15:27;;;;;;;;;;;;;;;20.56;44.44;102080.59;5071581;28;3944;-73
2023/03/02 08:17:53;;;;;;;;;;;;;;;20.56;44.61;102071.97;5072615;28;1603;-72
2023/03/02 08:20:20;;;;;;;;;;;;;;;20.56;44.71;102084.25;5072743;28;1914;-72
2023/03/02 08:22:46;;;;;;;;;;;;;;;20.57;44.74;102082.13;5072864;28;1816;-71
2023/03/02 08:25:12;;;;;;;;;;;;;;;20.60;45.08;102078.03;5072395;28;1948;-69
2023/03/02 08:27:39;;;;;;;;;;;;;;;20.59;45.02;102088.78;5076077;28;4379;-72
2023/03/02 08:30:05;;;;;;;;;;;;;;;20.58;45.15;102092.28;5078086;28;1913;-72
2023/03/02 08:32:32;;;;;;;;;;;;;;;20.64;45.81;102084.03;5069307;28;4705;-73
2023/03/02 08:34:59;;;;;;;;;;;;;;;20.63;45.87;102076.78;5074778;28;2487;-71
2023/03/02 08:37:25;;;;;;;;;;;;;;;20.63;45.05;102076.78;5074491;28;2522;-72
2023/03/02 08:39:51;;;;;;;;;;;;;;;20.62;45.34;102069.53;5075853;28;1914;-71
2023/03/02 08:42:18;;;;;;;;;;;;;;;20.63;45.07;102076.78;5075217;28;4795;-70
2023/03/02 08:44:44;;;;;;;;;;;;;;;20.63;46.25;102073.88;5076033;28;4117;-70
2023/03/02 08:47:10;;;;;;;;;;;;;;;20.63;46.44;102076.78;5078338;28;1858;-70
2023/03/02 08:49:37;;;;;;;;;;;;;;;20.64;46.05;102061.03;5075563;28;1710;-70
2023/03/02 08:52:03;;;;;;;;;;;;;;;20.65;46.34;102068.25;5074948;28;1641;-70
2023/03/02 08:54:29;;;;;;;;;;;;;;;20.68;46.51;102067.00;5077055;28;1915;-67
2023/03/02 08:56:56;;;;;;;;;;;;;;;21.05;46.58;102057.81;5064671;28;4606;-73
2023/03/02 08:59:22;;;;;;;;;;;;;;;21.21;46.11;102052.31;5072856;28;5173;-73
2023/03/02 09:01:48;;;;;;;;;;;;;;;21.29;45.40;102053.56;5065116;28;4694;-73
2023/03/02 09:04:15;;;;;;;;;;;;;;;21.30;45.21;102048.56;5067401;28;4197;-72
2023/03/02 09:06:42;;;;;;;;;;;;;;;21.36;45.15;102045.31;5075106;28;4109;-73
2023/03/02 09:09:08;;;;;;;;;;;;;;;21.36;45.10;102039.53;5075004;28;1850;-72
2023/03/02 09:11:34;;;;;;;;;;;;;;;21.37;44.95;102046.78;5074365;28;1810;-73
2023/03/02 09:14:01;;;;;;;;;;;;;;;21.39;44.80;102049.81;5076873;28;1692;-73
2023/03/02 09:16:27;;;;;;;;;;;;;;;21.41;44.49;102052.84;5076554;28;1603;-71
2023/03/02 09:18:54;;;;;;;;;;;;;;;21.15;44.70;102040.44;5077264;28;4194;-73
2023/03/02 09:21:20;;;;;;;;;;;;;;;20.88;45.31;102038.78;5072804;28;1951;-74
2023/03/02 09:23:47;;;;;;;;;;;;;;;20.85;45.30;102048.66;5070333;28;1631;-73
2023/03/02 09:26:13;;;;;;;;;;;;;;;20.80;45.23;102047.66;5070276;28;1909;-74
2023/03/02 09:28:39;;;;;;;;;;;;;;;20.80;45.44;102039.03;5077289;28;1632;-73
2023/03/02 09:31:06;;;;;;;;;;;;;;;20.76;45.54;102038.00;5071815;28;4471;-70
2023/03/02 09:33:32;;;;;;;;;;;;;;;21.09;45.87;102035.03;5104278;27;4789;-76
2023/03/02 09:36:00;;;;;;;;;;;;;;;21.36;45.26;102037.41;5070696;28;4644;-70
2023/03/02 09:38:26;;;;;;;;;;;;;;;21.45;44.78;102035.81;5074195;28;1696;-73
2023/03/02 09:41:12;;;;;;;;;;;;;;;21.50;44.41;102037.53;5077034;28;4149;-68
2023/03/02 09:43:57;;;;;;;;;;;;;;;21.59;44.58;102035.91;5073107;28;1902;-72
2023/03/02 09:46:26;;;;;;;;;;;;;;;21.61;43.85;102030.28;5076443;28;1787;-68
2023/03/02 09:49:19;;;;;;;;;;;;;;;21.61;43.95;102033.91;5078984;28;1700;-71
2023/03/02 09:52:00;;;;;;;;;;;;;;;21.61;44.13;102031.00;5060821;28;4156;-68
2023/03/02 09:54:27;;;;;;;;;;;;;;;21.27;43.94;102036.16;5106313;27;1655;-74
2023/03/02 09:56:54;;;;;;;;;;;;;;;21.02;44.26;102033.16;5107525;27;1635;-84
2023/03/02 09:59:25;;;;;;;;;;;;;;;21.00;45.10;102041.66;5077293;28;1977;-81
2023/03/02 10:01:53;;;;;;;;;;;;;;;20.97;44.95;102042.91;5099943;27;4892;-78
2023/03/02 10:04:25;;;;;;;;;;;;;;;20.95;45.31;102034.91;5100724;27;4457;-76
2023/03/02 10:06:56;;;;;;;;;;;;;;;20.90;44.71;102048.28;5071400;28;1639;-79
2023/03/02 10:09:23;;;;;;;;;;;;;;;20.87;44.76;102048.78;5076211;28;4078;-70
2023/03/02 10:11:53;;;;;;;;;;;;;;;20.87;45.10;102049.53;5067849;28;1722;-77
2023/03/02 10:14:22;;;;;;;;;;;;;;;20.84;45.09;102044.28;5072054;28;1758;-77
2023/03/02 10:16:55;;;;;;;;;;;;;;;20.83;45.23;102042.78;5073147;28;1750;-77
2023/03/02 10:19:31;;;;;;;;;;;;;;;20.82;45.10;102042.03;5106685;27;1914;-77
2023/03/02 10:21:59;;;;;;;;;;;;;;;20.84;45.41;102039.25;5106274;27;1690;-77
2023/03/02 10:24:29;;;;;;;;;;;;;;;20.83;45.26;102034.88;5108028;27;1664;-75
2023/03/02 10:27:14;;;;;;;;;;;;;;;20.83;45.35;102037.75;5107751;27;1655;-77
2023/03/02 10:29:42;;;;;;;;;;;;;;;20.84;45.32;102039.25;5064831;28;3000;-76
2023/03/02 10:32:08;;;;;;;;;;;;;;;20.89;44.99;102041.03;5102902;27;2839;-77
2023/03/02 10:34:35;;;;;;;;;;;;;;;21.00;44.91;102044.53;5071766;28;2478;-71
2023/03/02 10:37:02;;;;;;;;;;;;;;;21.29;44.80;102033.41;5091782;27;4600;-69
2023/03/02 10:39:28;;;;;;;;;;;;;;;21.27;44.93;102032.53;5065290;28;2962;-68
2023/03/02 10:41:56;;;;;;;;;;;;;;;21.29;44.95;102033.41;5066037;28;2690;-67
2023/03/02 10:44:35;;;;;;;;;;;;;;;21.36;44.99;102030.91;5096362;27;2984;-69
2023/03/02 10:47:02;;;;;;;;;;;;;;;21.22;44.21;102030.78;5102821;27;4610;-69
2023/03/02 10:49:28;;;;;;;;;;;;;;;21.19;44.03;102037.78;5063069;28;4335;-75
2023/03/02 10:51:59;;;;;;;;;;;;;;;21.13;44.49;102036.03;5066460;28;2846;-76
2023/03/02 10:54:27;;;;;;;;;;;;;;;21.18;44.10;102024.78;5065269;28;2922;-77
2023/03/02 10:56:55;;;;;;;;;;;;;;;21.20;44.34;102022.75;5062756;28;2664;-75
2023/03/02 10:59:24;;;;;;;;;;;;;;;21.24;44.25;102022.28;5097826;27;2383;-79
2023/03/02 11:02:01;;;;;;;;;;;;;;;21.33;44.27;102024.28;5064179;28;4305;-73
2023/03/02 11:04:28;;;;;;;;;;;;;;;21.29;44.10;102030.53;5067241;28;2790;-71
2023/03/02 11:06:54;;;;;;;;;;;;;;;21.21;44.14;102030.03;5063266;28;4503;-72
2023/03/02 11:09:21;;;;;;;;;;;;;;;21.34;44.23;102032.25;5095415;27;2798;-76
2023/03/02 11:11:52;;;;;;;;;;;;;;;21.24;43.89;102020.13;5062047;28;2962;-71
2023/03/02 11:14:18;;;;;;;;;;;;;;;21.12;44.12;102019.41;5093297;27;4482;-72
2023/03/02 11:16:44;;;;;;;;;;;;;;;20.96;44.47;102022.03;5073981;28;4200;-73
2023/03/02 11:19:15;;;;;;;;;;;;;;;21.25;44.97;102021.63;5099158;27;2766;-73
2023/03/02 11:21:50;;;;;;;;;;;;;;;21.39;44.46;102026.75;5097179;27;4715;-73
2023/03/02 11:24:24;;;;;;;;;;;;;;;21.55;44.57;102022.00;5075716;28;2648;-70
2023/03/02 11:26:51;;;;;;;;;;;;;;;21.63;44.05;102016.72;5072250;28;1902;-72
2023/03/02 11:29:32;;;;;;;;;;;;;;;21.66;43.99;102008.94;5101668;27;2596;-74
2023/03/02 11:32:07;;;;;;;;;;;;;;;21.71;43.58;102017.19;5066545;28;2821;-72
2023/03/02 11:34:40;;;;;;;;;;;;;;;21.63;43.81;102005.19;5063272;28;2779;-71
2023/03/02 11:37:25;;;;;;;;;;;;;;;21.60;43.88;102000.69;5062799;28;4551;-72
2023/03/02 11:39:55;;;;;;;;;;;;;;;21.56;43.89;102003.34;5053893;28;3523;-69
2023/03/02 11:42:27;;;;;;;;;;;;;;;21.45;44.46;102001.22;5063126;28;4808;-72
2023/03/02 11:44:54;;;;;;;;;;;;;;;21.39;44.54;101997.94;5102271;27;1694;-69
2023/03/02 11:47:20;;;;;;;;;;;;;;;21.32;44.90;102000.44;5070129;28;4190;-73
2023/03/02 11:49:48;;;;;;;;;;;;;;;21.44;44.27;102006.25;5071504;28;1782;-74
2023/03/02 11:52:16;;;;;;;;;;;;;;;21.52;43.83;101989.41;5099425;27;1749;-78
2023/03/02 11:54:43;;;;;;;;;;;;;;;21.54;43.88;101991.69;5069304;28;1983;-74
2023/03/02 11:57:24;;;;;;;;;;;;;;;21.52;43.67;101994.44;5100099;28;4063;-76
2023/03/02 11:59:51;;;;;;;;;;;;;;;21.48;43.81;101994.94;5054412;28;2943;-76
2023/03/02 12:02:17;;;;;;;;;;;;;;;21.50;44.07;101986.41;5067305;28;4360;-75
2023/03/02 12:04:43;;;;;;;;;;;;;;;21.51;43.97;101987.19;5067196;28;2537;-76
2023/03/02 12:07:21;;;;;;;;;;;;;;;21.37;43.78;101986.28;5068220;28;2391;-71
2023/03/02 12:10:01;;;;;;;;;;;;;;;21.16;44.33;101990.06;5065429;28;2744;-71
2023/03/02 12:12:34;;;;;;;;;;;;;;;21.06;44.15;101984.44;5072298;28;1690;-71
2023/03/02 12:15:01;;;;;;;;;;;;;;;21.05;44.44;101977.16;5064595;28;2810;-73
2023/03/02 12:17:28;;;;;;;;;;;;;;;21.18;44.50;101973.66;5095285;28;3679;-74
2023/03/02 12:20:07;;;;;;;;;;;;;;;21.24;45.12;101976.16;5069107;28;2785;-75
2023/03/02 12:22:36;;;;;;;;;;;;;;;21.37;44.18;101966.13;5060971;28;2506;-75
2023/03/02 12:25:17;;;;;;;;;;;;;;;21.41;44.17;101960.63;5059652;28;4342;-76
2023/03/02 12:27:44;;;;;;;;;;;;;;;21.40;44.73;101959.88;5061053;28;2950;-72
2023/03/02 12:30:23;;;;;;;;;;;;;;;21.34;44.60;101948.69;5054938;28;4389;-74
2023/03/02 12:33:03;;;;;;;;;;;;;;;21.37;44.71;101954.59;5065294;28;4504;-73
2023/03/02 12:35:30;;;;;;;;;;;;;;;21.42;44.76;101950.63;5065049;28;4132;-73
2023/03/02 12:37:57;;;;;;;;;;;;;;;21.44;44.62;101947.84;5057329;28;2978;-74
2023/03/02 12:40:43;;;;;;;;;;;;;;;21.47;44.42;101946.59;5067443;28;2360;-74
2023/03/02 12:43:25;;;;;;;;;;;;;;;21.51;43.79;101941.06;5064536;28;4677;-70
2023/03/02 12:46:11;;;;;;;;;;;;;;;21.48;44.18;101939.44;5072390;28;4453;-70
2023/03/02 12:48:45;;;;;;;;;;;;;;;21.31;43.59;101935.56;5070326;28;1702;-70
2023/03/02 12:51:13;;;;;;;;;;;;;;;21.25;43.40;101938.06;5067321;28;4241;-70
2023/03/02 12:53:40;;;;;;;;;;;;;;;21.22;43.57;101939.34;5068280;28;1798;-70